sensor_id;sensor_type;location;lat;lon;timestamp;P1;durP1;ratioP1;P2;durP2;ratioP2
15848;SDS011;8024;48.708;9.394;2023-08-06T00:00:00;7.00;;;6.30;;
15848;SDS011;8024;48.708;9.394;2023-08-06T00:02:28;9.17;;;8.27;;
15848;SDS011;8024;48.708;9.394;2023-08-06T00:04:55;8.47;;;7.73;;
15848;SDS011;8024;48.708;9.394;2023-08-06T00:07:22;8.40;;;7.40;;
15848;SDS011;8024;48.708;9.394;2023-08-06T00:09:49;7.70;;;7.00;;
15848;SDS011;8024;48.708;9.394;2023-08-06T00:12:18;9.30;;;8.40;;
15848;SDS011;8024;48.708;9.394;2023-08-06T00:14:45;8.00;;;7.30;;
15848;SDS011;8024;48.708;9.394;2023-08-06T00:17:16;8.53;;;7.60;;
15848;SDS011;8024;48.708;9.394;2023-08-06T00:19:43;9.13;;;8.23;;
15848;SDS011;8024;48.708;9.394;2023-08-06T00:22:10;11.37;;;7.57;;
15848;SDS011;8024;48.708;9.394;2023-08-06T00:24:37;8.17;;;7.47;;
15848;SDS011;8024;48.708;9.394;2023-08-06T00:27:04;8.30;;;7.23;;
15848;SDS011;8024;48.708;9.394;2023-08-06T00:29:33;7.90;;;7.20;;
15848;SDS011;8024;48.708;9.394;2023-08-06T00:32:00;8.27;;;7.50;;
15848;SDS011;8024;48.708;9.394;2023-08-06T00:34:27;7.27;;;6.57;;
15848;SDS011;8024;48.708;9.394;2023-08-06T00:36:55;7.87;;;7.07;;
15848;SDS011;8024;48.708;9.394;2023-08-06T00:39:22;8.43;;;7.63;;
15848;SDS011;8024;48.708;9.394;2023-08-06T00:41:49;9.60;;;8.43;;
15848;SDS011;8024;48.708;9.394;2023-08-06T00:44:16;9.40;;;8.50;;
15848;SDS011;8024;48.708;9.394;2023-08-06T00:46:44;9.13;;;8.23;;
15848;SDS011;8024;48.708;9.394;2023-08-06T00:49:12;10.23;;;8.40;;
15848;SDS011;8024;48.708;9.394;2023-08-06T00:51:39;9.53;;;8.63;;
15848;SDS011;8024;48.708;9.394;2023-08-06T00:54:06;10.37;;;9.50;;
15848;SDS011;8024;48.708;9.394;2023-08-06T00:56:34;10.10;;;9.30;;
15848;SDS011;8024;48.708;9.394;2023-08-06T00:59:01;9.70;;;8.90;;
15848;SDS011;8024;48.708;9.394;2023-08-06T01:01:29;10.33;;;9.30;;
15848;SDS011;8024;48.708;9.394;2023-08-06T01:03:58;10.27;;;8.97;;
15848;SDS011;8024;48.708;9.394;2023-08-06T01:06:29;9.00;;;8.07;;
15848;SDS011;8024;48.708;9.394;2023-08-06T01:09:04;10.07;;;9.17;;
15848;SDS011;8024;48.708;9.394;2023-08-06T01:11:43;9.70;;;8.77;;
15848;SDS011;8024;48.708;9.394;2023-08-06T01:14:18;10.97;;;9.07;;
15848;SDS011;8024;48.708;9.394;2023-08-06T01:16:50;11.17;;;9.20;;
15848;SDS011;8024;48.708;9.394;2023-08-06T01:19:19;10.87;;;8.90;;
15848;SDS011;8024;48.708;9.394;2023-08-06T01:21:48;8.93;;;8.13;;
15848;SDS011;8024;48.708;9.394;2023-08-06T01:24:15;10.10;;;8.50;;
15848;SDS011;8024;48.708;9.394;2023-08-06T01:26:44;7.93;;;7.23;;
15848;SDS011;8024;48.708;9.394;2023-08-06T01:29:18;8.13;;;7.33;;
15848;SDS011;8024;48.708;9.394;2023-08-06T01:31:50;8.63;;;7.87;;
15848;SDS011;8024;48.708;9.394;2023-08-06T01:34:20;9.07;;;8.13;;
15848;SDS011;8024;48.708;9.394;2023-08-06T01:36:50;8.10;;;7.40;;
15848;SDS011;8024;48.708;9.394;2023-08-06T01:39:18;6.67;;;6.07;;
15848;SDS011;8024;48.708;9.394;2023-08-06T01:41:46;6.90;;;6.33;;
15848;SDS011;8024;48.708;9.394;2023-08-06T01:44:13;6.23;;;5.73;;
15848;SDS011;8024;48.708;9.394;2023-08-06T01:46:40;5.13;;;4.67;;
15848;SDS011;8024;48.708;9.394;2023-08-06T01:49:07;4.97;;;3.93;;
15848;SDS011;8024;48.708;9.394;2023-08-06T01:51:35;4.37;;;4.07;;
15848;SDS011;8024;48.708;9.394;2023-08-06T01:54:03;4.63;;;4.23;;
15848;SDS011;8024;48.708;9.394;2023-08-06T01:56:30;4.80;;;3.80;;
15848;SDS011;8024;48.708;9.394;2023-08-06T01:58:57;5.40;;;4.23;;
15848;SDS011;8024;48.708;9.394;2023-08-06T02:01:24;6.77;;;4.40;;
15848;SDS011;8024;48.708;9.394;2023-08-06T02:03:52;4.63;;;4.17;;
15848;SDS011;8024;48.708;9.394;2023-08-06T02:06:19;4.13;;;3.73;;
15848;SDS011;8024;48.708;9.394;2023-08-06T02:08:46;4.10;;;3.80;;
15848;SDS011;8024;48.708;9.394;2023-08-06T02:11:14;4.63;;;4.23;;
15848;SDS011;8024;48.708;9.394;2023-08-06T02:13:41;6.60;;;4.70;;
15848;SDS011;8024;48.708;9.394;2023-08-06T02:16:09;5.03;;;3.93;;
15848;SDS011;8024;48.708;9.394;2023-08-06T02:18:36;4.53;;;4.03;;
15848;SDS011;8024;48.708;9.394;2023-08-06T02:21:03;3.83;;;3.53;;
15848;SDS011;8024;48.708;9.394;2023-08-06T02:23:30;4.40;;;3.97;;
15848;SDS011;8024;48.708;9.394;2023-08-06T02:25:58;4.17;;;3.83;;
15848;SDS011;8024;48.708;9.394;2023-08-06T02:28:27;5.13;;;4.63;;
15848;SDS011;8024;48.708;9.394;2023-08-06T02:30:54;3.50;;;3.20;;
15848;SDS011;8024;48.708;9.394;2023-08-06T02:33:21;4.20;;;3.80;;
15848;SDS011;8024;48.708;9.394;2023-08-06T02:35:49;5.37;;;3.93;;
15848;SDS011;8024;48.708;9.394;2023-08-06T02:38:16;3.47;;;3.23;;
15848;SDS011;8024;48.708;9.394;2023-08-06T02:40:43;5.03;;;3.87;;
15848;SDS011;8024;48.708;9.394;2023-08-06T02:43:11;3.70;;;3.40;;
15848;SDS011;8024;48.708;9.394;2023-08-06T02:45:39;3.23;;;2.93;;
15848;SDS011;8024;48.708;9.394;2023-08-06T02:48:06;3.83;;;3.17;;
15848;SDS011;8024;48.708;9.394;2023-08-06T02:50:37;3.63;;;3.20;;
15848;SDS011;8024;48.708;9.394;2023-08-06T02:53:05;3.60;;;3.30;;
15848;SDS011;8024;48.708;9.394;2023-08-06T02:55:32;3.93;;;3.63;;
15848;SDS011;8024;48.708;9.394;2023-08-06T02:58:00;5.13;;;3.40;;
15848;SDS011;8024;48.708;9.394;2023-08-06T03:00:27;3.27;;;2.93;;
15848;SDS011;8024;48.708;9.394;2023-08-06T03:02:56;3.30;;;3.00;;
15848;SDS011;8024;48.708;9.394;2023-08-06T03:05:23;3.40;;;3.10;;
15848;SDS011;8024;48.708;9.394;2023-08-06T03:07:50;5.87;;;3.50;;
15848;SDS011;8024;48.708;9.394;2023-08-06T03:10:18;4.73;;;3.13;;
15848;SDS011;8024;48.708;9.394;2023-08-06T03:12:45;3.57;;;3.17;;
15848;SDS011;8024;48.708;9.394;2023-08-06T03:15:12;4.10;;;2.93;;
15848;SDS011;8024;48.708;9.394;2023-08-06T03:17:39;4.60;;;3.40;;
15848;SDS011;8024;48.708;9.394;2023-08-06T03:20:08;7.23;;;3.87;;
15848;SDS011;8024;48.708;9.394;2023-08-06T03:22:36;4.57;;;4.07;;
15848;SDS011;8024;48.708;9.394;2023-08-06T03:25:03;4.10;;;3.80;;
15848;SDS011;8024;48.708;9.394;2023-08-06T03:27:31;3.70;;;3.40;;
15848;SDS011;8024;48.708;9.394;2023-08-06T03:29:58;4.07;;;2.90;;
15848;SDS011;8024;48.708;9.394;2023-08-06T03:32:26;5.10;;;3.17;;
15848;SDS011;8024;48.708;9.394;2023-08-06T03:34:53;2.43;;;2.23;;
15848;SDS011;8024;48.708;9.394;2023-08-06T03:37:21;2.93;;;2.47;;
15848;SDS011;8024;48.708;9.394;2023-08-06T03:39:48;2.30;;;2.13;;
15848;SDS011;8024;48.708;9.394;2023-08-06T03:42:16;3.40;;;2.30;;
15848;SDS011;8024;48.708;9.394;2023-08-06T03:44:43;2.47;;;2.23;;
15848;SDS011;8024;48.708;9.394;2023-08-06T03:47:10;2.73;;;2.53;;
15848;SDS011;8024;48.708;9.394;2023-08-06T03:49:37;3.50;;;2.60;;
15848;SDS011;8024;48.708;9.394;2023-08-06T03:52:04;2.07;;;1.97;;
15848;SDS011;8024;48.708;9.394;2023-08-06T03:54:33;3.37;;;2.10;;
15848;SDS011;8024;48.708;9.394;2023-08-06T03:57:00;2.57;;;2.17;;
15848;SDS011;8024;48.708;9.394;2023-08-06T03:59:28;3.33;;;2.10;;
15848;SDS011;8024;48.708;9.394;2023-08-06T04:01:55;3.93;;;2.27;;
15848;SDS011;8024;48.708;9.394;2023-08-06T04:04:22;1.93;;;1.73;;
15848;SDS011;8024;48.708;9.394;2023-08-06T04:06:49;3.03;;;2.20;;
15848;SDS011;8024;48.708;9.394;2023-08-06T04:09:16;2.23;;;1.80;;
15848;SDS011;8024;48.708;9.394;2023-08-06T04:11:45;1.90;;;1.47;;
15848;SDS011;8024;48.708;9.394;2023-08-06T04:14:12;3.30;;;1.90;;
15848;SDS011;8024;48.708;9.394;2023-08-06T04:16:39;2.57;;;1.77;;
15848;SDS011;8024;48.708;9.394;2023-08-06T04:19:06;1.57;;;1.37;;
15848;SDS011;8024;48.708;9.394;2023-08-06T04:21:33;3.23;;;1.20;;
15848;SDS011;8024;48.708;9.394;2023-08-06T04:24:01;2.40;;;2.20;;
15848;SDS011;8024;48.708;9.394;2023-08-06T04:26:28;2.50;;;1.30;;
15848;SDS011;8024;48.708;9.394;2023-08-06T04:28:56;1.57;;;1.23;;
15848;SDS011;8024;48.708;9.394;2023-08-06T04:31:23;3.33;;;1.60;;
15848;SDS011;8024;48.708;9.394;2023-08-06T04:33:51;2.40;;;1.70;;
15848;SDS011;8024;48.708;9.394;2023-08-06T04:36:18;2.13;;;1.57;;
15848;SDS011;8024;48.708;9.394;2023-08-06T04:38:45;2.57;;;1.87;;
15848;SDS011;8024;48.708;9.394;2023-08-06T04:41:12;2.37;;;2.00;;
15848;SDS011;8024;48.708;9.394;2023-08-06T04:43:39;1.60;;;1.50;;
15848;SDS011;8024;48.708;9.394;2023-08-06T04:46:08;1.83;;;1.40;;
15848;SDS011;8024;48.708;9.394;2023-08-06T04:48:35;1.70;;;1.60;;
15848;SDS011;8024;48.708;9.394;2023-08-06T04:51:02;2.53;;;1.87;;
15848;SDS011;8024;48.708;9.394;2023-08-06T04:53:29;1.73;;;1.20;;
15848;SDS011;8024;48.708;9.394;2023-08-06T04:55:56;4.33;;;1.53;;
15848;SDS011;8024;48.708;9.394;2023-08-06T04:58:23;3.13;;;1.50;;
15848;SDS011;8024;48.708;9.394;2023-08-06T05:00:51;2.30;;;1.87;;
15848;SDS011;8024;48.708;9.394;2023-08-06T05:03:20;2.07;;;1.20;;
15848;SDS011;8024;48.708;9.394;2023-08-06T05:05:47;2.07;;;1.43;;
15848;SDS011;8024;48.708;9.394;2023-08-06T05:08:15;1.70;;;1.30;;
15848;SDS011;8024;48.708;9.394;2023-08-06T05:10:42;2.40;;;0.93;;
15848;SDS011;8024;48.708;9.394;2023-08-06T05:13:10;2.93;;;1.10;;
15848;SDS011;8024;48.708;9.394;2023-08-06T05:15:37;0.60;;;0.60;;
15848;SDS011;8024;48.708;9.394;2023-08-06T05:18:07;2.10;;;0.40;;
15848;SDS011;8024;48.708;9.394;2023-08-06T05:20:37;1.33;;;0.63;;
15848;SDS011;8024;48.708;9.394;2023-08-06T05:23:04;1.93;;;0.50;;
15848;SDS011;8024;48.708;9.394;2023-08-06T05:25:31;2.13;;;0.73;;
15848;SDS011;8024;48.708;9.394;2023-08-06T05:28:00;1.43;;;0.50;;
15848;SDS011;8024;48.708;9.394;2023-08-06T05:30:27;2.23;;;0.60;;
15848;SDS011;8024;48.708;9.394;2023-08-06T05:32:54;3.43;;;0.70;;
15848;SDS011;8024;48.708;9.394;2023-08-06T05:35:22;1.23;;;0.57;;
15848;SDS011;8024;48.708;9.394;2023-08-06T05:37:50;2.60;;;0.73;;
15848;SDS011;8024;48.708;9.394;2023-08-06T05:40:18;0.80;;;0.60;;
15848;SDS011;8024;48.708;9.394;2023-08-06T05:42:45;1.60;;;0.60;;
15848;SDS011;8024;48.708;9.394;2023-08-06T05:45:12;1.50;;;0.50;;
15848;SDS011;8024;48.708;9.394;2023-08-06T05:47:39;2.10;;;0.70;;
15848;SDS011;8024;48.708;9.394;2023-08-06T05:50:07;1.77;;;0.70;;
15848;SDS011;8024;48.708;9.394;2023-08-06T05:52:35;0.90;;;0.40;;
15848;SDS011;8024;48.708;9.394;2023-08-06T05:55:03;0.93;;;0.70;;
15848;SDS011;8024;48.708;9.394;2023-08-06T05:57:31;1.80;;;0.70;;
15848;SDS011;8024;48.708;9.394;2023-08-06T05:59:58;1.17;;;0.53;;
15848;SDS011;8024;48.708;9.394;2023-08-06T06:02:26;1.00;;;0.87;;
15848;SDS011;8024;48.708;9.394;2023-08-06T06:04:53;1.33;;;0.50;;
15848;SDS011;8024;48.708;9.394;2023-08-06T06:07:20;1.87;;;0.43;;
15848;SDS011;8024;48.708;9.394;2023-08-06T06:09:47;1.40;;;0.57;;
15848;SDS011;8024;48.708;9.394;2023-08-06T06:12:15;1.30;;;0.47;;
15848;SDS011;8024;48.708;9.394;2023-08-06T06:14:43;2.80;;;0.97;;
15848;SDS011;8024;48.708;9.394;2023-08-06T06:17:10;1.30;;;0.40;;
15848;SDS011;8024;48.708;9.394;2023-08-06T06:19:37;1.13;;;0.40;;
15848;SDS011;8024;48.708;9.394;2023-08-06T06:22:04;2.10;;;0.60;;
15848;SDS011;8024;48.708;9.394;2023-08-06T06:24:31;3.00;;;0.40;;
15848;SDS011;8024;48.708;9.394;2023-08-06T06:26:59;0.43;;;0.43;;
15848;SDS011;8024;48.708;9.394;2023-08-06T06:29:27;1.27;;;0.30;;
15848;SDS011;8024;48.708;9.394;2023-08-06T06:31:54;1.57;;;0.40;;
15848;SDS011;8024;48.708;9.394;2023-08-06T06:34:21;1.10;;;0.33;;
15848;SDS011;8024;48.708;9.394;2023-08-06T06:36:49;1.37;;;0.57;;
15848;SDS011;8024;48.708;9.394;2023-08-06T06:39:17;2.40;;;0.40;;
15848;SDS011;8024;48.708;9.394;2023-08-06T06:41:44;1.97;;;0.30;;
15848;SDS011;8024;48.708;9.394;2023-08-06T06:44:11;1.93;;;0.47;;
15848;SDS011;8024;48.708;9.394;2023-08-06T06:46:41;0.73;;;0.30;;
15848;SDS011;8024;48.708;9.394;2023-08-06T06:49:08;2.70;;;0.93;;
15848;SDS011;8024;48.708;9.394;2023-08-06T06:51:35;1.07;;;0.30;;
15848;SDS011;8024;48.708;9.394;2023-08-06T06:54:02;1.67;;;0.40;;
15848;SDS011;8024;48.708;9.394;2023-08-06T06:56:29;0.50;;;0.30;;
15848;SDS011;8024;48.708;9.394;2023-08-06T06:58:56;1.90;;;0.30;;
15848;SDS011;8024;48.708;9.394;2023-08-06T07:01:24;0.60;;;0.30;;
15848;SDS011;8024;48.708;9.394;2023-08-06T07:03:52;0.73;;;0.30;;
15848;SDS011;8024;48.708;9.394;2023-08-06T07:06:19;1.47;;;0.40;;
15848;SDS011;8024;48.708;9.394;2023-08-06T07:08:46;1.00;;;0.30;;
15848;SDS011;8024;48.708;9.394;2023-08-06T07:11:13;2.53;;;0.43;;
15848;SDS011;8024;48.708;9.394;2023-08-06T07:13:41;0.30;;;0.30;;
15848;SDS011;8024;48.708;9.394;2023-08-06T07:16:08;0.60;;;0.30;;
15848;SDS011;8024;48.708;9.394;2023-08-06T07:18:35;1.43;;;0.20;;
15848;SDS011;8024;48.708;9.394;2023-08-06T07:21:03;0.57;;;0.57;;
15848;SDS011;8024;48.708;9.394;2023-08-06T07:23:31;0.37;;;0.20;;
15848;SDS011;8024;48.708;9.394;2023-08-06T07:25:58;0.30;;;0.30;;
15848;SDS011;8024;48.708;9.394;2023-08-06T07:28:24;1.07;;;0.20;;
15848;SDS011;8024;48.708;9.394;2023-08-06T07:30:51;0.13;;;0.13;;
15848;SDS011;8024;48.708;9.394;2023-08-06T07:33:18;0.33;;;0.13;;
15848;SDS011;8024;48.708;9.394;2023-08-06T07:35:45;1.50;;;0.97;;
15848;SDS011;8024;48.708;9.394;2023-08-06T07:38:14;0.90;;;0.30;;
15848;SDS011;8024;48.708;9.394;2023-08-06T07:40:41;0.30;;;0.20;;
15848;SDS011;8024;48.708;9.394;2023-08-06T07:43:08;0.57;;;0.20;;
15848;SDS011;8024;48.708;9.394;2023-08-06T07:45:35;1.93;;;0.40;;
15848;SDS011;8024;48.708;9.394;2023-08-06T07:48:03;0.67;;;0.20;;
15848;SDS011;8024;48.708;9.394;2023-08-06T07:50:31;0.30;;;0.20;;
15848;SDS011;8024;48.708;9.394;2023-08-06T07:52:58;0.90;;;0.30;;
15848;SDS011;8024;48.708;9.394;2023-08-06T07:55:26;0.57;;;0.40;;
15848;SDS011;8024;48.708;9.394;2023-08-06T07:57:54;0.30;;;0.30;;
15848;SDS011;8024;48.708;9.394;2023-08-06T08:00:21;0.17;;;0.10;;
15848;SDS011;8024;48.708;9.394;2023-08-06T08:02:48;0.30;;;0.10;;
15848;SDS011;8024;48.708;9.394;2023-08-06T08:05:16;0.90;;;0.10;;
15848;SDS011;8024;48.708;9.394;2023-08-06T08:07:43;0.20;;;0.20;;
15848;SDS011;8024;48.708;9.394;2023-08-06T08:10:10;0.30;;;0.10;;
15848;SDS011;8024;48.708;9.394;2023-08-06T08:12:39;1.00;;;0.27;;
15848;SDS011;8024;48.708;9.394;2023-08-06T08:15:07;0.70;;;0.23;;
15848;SDS011;8024;48.708;9.394;2023-08-06T08:17:35;0.17;;;0.17;;
15848;SDS011;8024;48.708;9.394;2023-08-06T08:20:03;0.10;;;0.10;;
15848;SDS011;8024;48.708;9.394;2023-08-06T08:22:30;1.57;;;0.10;;
15848;SDS011;8024;48.708;9.394;2023-08-06T08:24:58;0.10;;;0.10;;
15848;SDS011;8024;48.708;9.394;2023-08-06T08:27:25;0.50;;;0.10;;
15848;SDS011;8024;48.708;9.394;2023-08-06T08:29:53;0.10;;;0.10;;
15848;SDS011;8024;48.708;9.394;2023-08-06T08:32:20;0.10;;;0.10;;
15848;SDS011;8024;48.708;9.394;2023-08-06T08:34:48;0.13;;;0.13;;
15848;SDS011;8024;48.708;9.394;2023-08-06T08:37:15;0.50;;;0.10;;
15848;SDS011;8024;48.708;9.394;2023-08-06T08:39:42;0.13;;;0.13;;
15848;SDS011;8024;48.708;9.394;2023-08-06T08:42:09;1.17;;;0.30;;
15848;SDS011;8024;48.708;9.394;2023-08-06T08:44:37;0.10;;;0.10;;
15848;SDS011;8024;48.708;9.394;2023-08-06T08:47:07;0.10;;;0.10;;
15848;SDS011;8024;48.708;9.394;2023-08-06T08:49:35;1.27;;;0.10;;
15848;SDS011;8024;48.708;9.394;2023-08-06T08:52:03;0.10;;;0.10;;
15848;SDS011;8024;48.708;9.394;2023-08-06T08:54:32;0.10;;;0.10;;
15848;SDS011;8024;48.708;9.394;2023-08-06T08:57:00;0.10;;;0.10;;
15848;SDS011;8024;48.708;9.394;2023-08-06T08:59:27;0.10;;;0.10;;
15848;SDS011;8024;48.708;9.394;2023-08-06T09:01:54;0.40;;;0.10;;
15848;SDS011;8024;48.708;9.394;2023-08-06T09:04:24;0.10;;;0.10;;
15848;SDS011;8024;48.708;9.394;2023-08-06T09:06:56;0.10;;;0.10;;
15848;SDS011;8024;48.708;9.394;2023-08-06T09:09:26;0.10;;;0.10;;
15848;SDS011;8024;48.708;9.394;2023-08-06T09:11:58;0.10;;;0.10;;
15848;SDS011;8024;48.708;9.394;2023-08-06T09:14:27;0.63;;;0.10;;
15848;SDS011;8024;48.708;9.394;2023-08-06T09:16:54;0.10;;;0.10;;
15848;SDS011;8024;48.708;9.394;2023-08-06T09:19:24;0.63;;;0.13;;
15848;SDS011;8024;48.708;9.394;2023-08-06T09:21:54;1.10;;;0.10;;
15848;SDS011;8024;48.708;9.394;2023-08-06T09:24:22;0.47;;;0.10;;
15848;SDS011;8024;48.708;9.394;2023-08-06T09:26:49;0.10;;;0.10;;
15848;SDS011;8024;48.708;9.394;2023-08-06T09:29:16;0.10;;;0.10;;
15848;SDS011;8024;48.708;9.394;2023-08-06T09:31:44;0.67;;;0.10;;
15848;SDS011;8024;48.708;9.394;2023-08-06T09:34:14;0.10;;;0.10;;
15848;SDS011;8024;48.708;9.394;2023-08-06T09:36:44;0.30;;;0.20;;
15848;SDS011;8024;48.708;9.394;2023-08-06T09:39:13;0.10;;;0.10;;
15848;SDS011;8024;48.708;9.394;2023-08-06T09:41:41;0.10;;;0.10;;
15848;SDS011;8024;48.708;9.394;2023-08-06T09:44:15;0.10;;;0.10;;
15848;SDS011;8024;48.708;9.394;2023-08-06T09:46:46;0.10;;;0.10;;
15848;SDS011;8024;48.708;9.394;2023-08-06T09:49:14;0.10;;;0.10;;
15848;SDS011;8024;48.708;9.394;2023-08-06T09:51:41;0.20;;;0.20;;
15848;SDS011;8024;48.708;9.394;2023-08-06T09:54:10;0.10;;;0.10;;
15848;SDS011;8024;48.708;9.394;2023-08-06T09:56:38;0.30;;;0.10;;
15848;SDS011;8024;48.708;9.394;2023-08-06T09:59:06;0.63;;;0.10;;
15848;SDS011;8024;48.708;9.394;2023-08-06T10:01:34;0.10;;;0.10;;
15848;SDS011;8024;48.708;9.394;2023-08-06T10:04:03;0.13;;;0.10;;
15848;SDS011;8024;48.708;9.394;2023-08-06T10:06:33;0.10;;;0.10;;
15848;SDS011;8024;48.708;9.394;2023-08-06T10:09:02;0.10;;;0.10;;
15848;SDS011;8024;48.708;9.394;2023-08-06T10:11:30;0.40;;;0.10;;
15848;SDS011;8024;48.708;9.394;2023-08-06T10:13:58;0.10;;;0.10;;
15848;SDS011;8024;48.708;9.394;2023-08-06T10:16:30;0.10;;;0.10;;
15848;SDS011;8024;48.708;9.394;2023-08-06T10:18:57;0.37;;;0.10;;
15848;SDS011;8024;48.708;9.394;2023-08-06T10:21:25;0.10;;;0.10;;
15848;SDS011;8024;48.708;9.394;2023-08-06T10:23:54;0.10;;;0.10;;
15848;SDS011;8024;48.708;9.394;2023-08-06T10:26:26;0.10;;;0.10;;
15848;SDS011;8024;48.708;9.394;2023-08-06T10:28:54;0.10;;;0.10;;
15848;SDS011;8024;48.708;9.394;2023-08-06T10:34:19;0.20;;;0.20;;
15848;SDS011;8024;48.708;9.394;2023-08-06T10:36:46;0.10;;;0.10;;
15848;SDS011;8024;48.708;9.394;2023-08-06T10:39:14;0.10;;;0.10;;
15848;SDS011;8024;48.708;9.394;2023-08-06T10:41:43;1.03;;;0.10;;
15848;SDS011;8024;48.708;9.394;2023-08-06T10:44:10;0.40;;;0.40;;
15848;SDS011;8024;48.708;9.394;2023-08-06T10:46:38;0.20;;;0.20;;
15848;SDS011;8024;48.708;9.394;2023-08-06T10:49:05;0.20;;;0.20;;
15848;SDS011;8024;48.708;9.394;2023-08-06T10:51:33;0.10;;;0.10;;
15848;SDS011;8024;48.708;9.394;2023-08-06T10:54:00;0.77;;;0.20;;
15848;SDS011;8024;48.708;9.394;2023-08-06T10:56:28;0.10;;;0.10;;
15848;SDS011;8024;48.708;9.394;2023-08-06T10:58:57;1.20;;;0.20;;
15848;SDS011;8024;48.708;9.394;2023-08-06T11:01:26;0.10;;;0.10;;
15848;SDS011;8024;48.708;9.394;2023-08-06T11:03:55;0.10;;;0.10;;
15848;SDS011;8024;48.708;9.394;2023-08-06T11:06:27;0.37;;;0.10;;
15848;SDS011;8024;48.708;9.394;2023-08-06T11:08:54;0.10;;;0.10;;
15848;SDS011;8024;48.708;9.394;2023-08-06T11:11:22;0.10;;;0.10;;
15848;SDS011;8024;48.708;9.394;2023-08-06T11:13:50;0.10;;;0.10;;
15848;SDS011;8024;48.708;9.394;2023-08-06T11:16:20;0.20;;;0.20;;
15848;SDS011;8024;48.708;9.394;2023-08-06T11:18:49;0.10;;;0.10;;
15848;SDS011;8024;48.708;9.394;2023-08-06T11:21:18;0.10;;;0.10;;
15848;SDS011;8024;48.708;9.394;2023-08-06T11:23:45;0.20;;;0.17;;
15848;SDS011;8024;48.708;9.394;2023-08-06T11:26:13;0.20;;;0.20;;
15848;SDS011;8024;48.708;9.394;2023-08-06T11:28:45;0.97;;;0.23;;
15848;SDS011;8024;48.708;9.394;2023-08-06T11:31:19;0.20;;;0.10;;
15848;SDS011;8024;48.708;9.394;2023-08-06T11:33:47;0.20;;;0.20;;
15848;SDS011;8024;48.708;9.394;2023-08-06T11:36:14;0.20;;;0.20;;
15848;SDS011;8024;48.708;9.394;2023-08-06T11:38:41;1.80;;;0.30;;
15848;SDS011;8024;48.708;9.394;2023-08-06T11:41:08;0.93;;;0.20;;
15848;SDS011;8024;48.708;9.394;2023-08-06T11:43:35;0.83;;;0.20;;
15848;SDS011;8024;48.708;9.394;2023-08-06T11:46:02;0.20;;;0.20;;
15848;SDS011;8024;48.708;9.394;2023-08-06T11:48:31;0.20;;;0.20;;
15848;SDS011;8024;48.708;9.394;2023-08-06T11:50:58;0.63;;;0.50;;
15848;SDS011;8024;48.708;9.394;2023-08-06T11:53:27;0.23;;;0.20;;
15848;SDS011;8024;48.708;9.394;2023-08-06T11:55:55;0.40;;;0.40;;
15848;SDS011;8024;48.708;9.394;2023-08-06T11:58:22;0.30;;;0.30;;
15848;SDS011;8024;48.708;9.394;2023-08-06T12:00:49;0.30;;;0.20;;
15848;SDS011;8024;48.708;9.394;2023-08-06T12:03:18;0.20;;;0.20;;
15848;SDS011;8024;48.708;9.394;2023-08-06T12:05:47;0.73;;;0.40;;
15848;SDS011;8024;48.708;9.394;2023-08-06T12:08:15;0.30;;;0.23;;
15848;SDS011;8024;48.708;9.394;2023-08-06T12:10:42;0.30;;;0.30;;
15848;SDS011;8024;48.708;9.394;2023-08-06T12:13:09;0.93;;;0.30;;
15848;SDS011;8024;48.708;9.394;2023-08-06T12:15:38;0.37;;;0.30;;
15848;SDS011;8024;48.708;9.394;2023-08-06T12:18:05;0.20;;;0.20;;
15848;SDS011;8024;48.708;9.394;2023-08-06T12:20:33;0.37;;;0.37;;
15848;SDS011;8024;48.708;9.394;2023-08-06T12:23:01;0.70;;;0.53;;
15848;SDS011;8024;48.708;9.394;2023-08-06T12:25:28;0.60;;;0.30;;
15848;SDS011;8024;48.708;9.394;2023-08-06T12:27:55;0.30;;;0.30;;
15848;SDS011;8024;48.708;9.394;2023-08-06T12:30:22;0.70;;;0.47;;
15848;SDS011;8024;48.708;9.394;2023-08-06T12:32:50;0.37;;;0.30;;
15848;SDS011;8024;48.708;9.394;2023-08-06T12:35:17;0.37;;;0.30;;
15848;SDS011;8024;48.708;9.394;2023-08-06T12:37:45;0.37;;;0.30;;
15848;SDS011;8024;48.708;9.394;2023-08-06T12:40:14;0.87;;;0.20;;
15848;SDS011;8024;48.708;9.394;2023-08-06T12:42:41;0.53;;;0.30;;
15848;SDS011;8024;48.708;9.394;2023-08-06T12:45:08;1.70;;;0.30;;
15848;SDS011;8024;48.708;9.394;2023-08-06T12:47:36;0.30;;;0.30;;
15848;SDS011;8024;48.708;9.394;2023-08-06T12:50:03;1.23;;;0.30;;
15848;SDS011;8024;48.708;9.394;2023-08-06T12:52:31;0.40;;;0.40;;
15848;SDS011;8024;48.708;9.394;2023-08-06T12:54:58;0.30;;;0.30;;
15848;SDS011;8024;48.708;9.394;2023-08-06T12:57:26;0.47;;;0.30;;
15848;SDS011;8024;48.708;9.394;2023-08-06T12:59:54;1.13;;;0.40;;
15848;SDS011;8024;48.708;9.394;2023-08-06T13:02:21;0.20;;;0.20;;
15848;SDS011;8024;48.708;9.394;2023-08-06T13:04:49;0.30;;;0.30;;
15848;SDS011;8024;48.708;9.394;2023-08-06T13:07:16;0.30;;;0.30;;
15848;SDS011;8024;48.708;9.394;2023-08-06T13:09:43;0.70;;;0.27;;
15848;SDS011;8024;48.708;9.394;2023-08-06T13:12:10;0.20;;;0.20;;
15848;SDS011;8024;48.708;9.394;2023-08-06T13:14:38;0.73;;;0.20;;
15848;SDS011;8024;48.708;9.394;2023-08-06T13:17:06;0.20;;;0.20;;
15848;SDS011;8024;48.708;9.394;2023-08-06T13:19:35;0.27;;;0.27;;
15848;SDS011;8024;48.708;9.394;2023-08-06T13:22:02;0.30;;;0.30;;
15848;SDS011;8024;48.708;9.394;2023-08-06T13:24:32;0.83;;;0.30;;
15848;SDS011;8024;48.708;9.394;2023-08-06T13:26:59;0.30;;;0.30;;
15848;SDS011;8024;48.708;9.394;2023-08-06T13:29:28;0.30;;;0.30;;
15848;SDS011;8024;48.708;9.394;2023-08-06T13:31:56;0.50;;;0.30;;
15848;SDS011;8024;48.708;9.394;2023-08-06T13:34:23;0.50;;;0.30;;
15848;SDS011;8024;48.708;9.394;2023-08-06T13:36:50;0.33;;;0.30;;
15848;SDS011;8024;48.708;9.394;2023-08-06T13:39:18;0.60;;;0.40;;
15848;SDS011;8024;48.708;9.394;2023-08-06T13:41:45;0.50;;;0.30;;
15848;SDS011;8024;48.708;9.394;2023-08-06T13:44:12;3.30;;;0.43;;
15848;SDS011;8024;48.708;9.394;2023-08-06T13:46:40;1.00;;;0.30;;
15848;SDS011;8024;48.708;9.394;2023-08-06T13:49:09;0.30;;;0.30;;
15848;SDS011;8024;48.708;9.394;2023-08-06T13:51:36;0.20;;;0.20;;
15848;SDS011;8024;48.708;9.394;2023-08-06T13:54:04;1.27;;;1.03;;
15848;SDS011;8024;48.708;9.394;2023-08-06T13:56:32;0.30;;;0.30;;
15848;SDS011;8024;48.708;9.394;2023-08-06T13:59:01;0.40;;;0.20;;
15848;SDS011;8024;48.708;9.394;2023-08-06T14:01:29;0.20;;;0.20;;
15848;SDS011;8024;48.708;9.394;2023-08-06T14:03:56;0.20;;;0.20;;
15848;SDS011;8024;48.708;9.394;2023-08-06T14:06:24;0.33;;;0.20;;
15848;SDS011;8024;48.708;9.394;2023-08-06T14:08:51;1.17;;;0.20;;
15848;SDS011;8024;48.708;9.394;2023-08-06T14:11:18;0.20;;;0.20;;
15848;SDS011;8024;48.708;9.394;2023-08-06T14:13:46;0.20;;;0.20;;
15848;SDS011;8024;48.708;9.394;2023-08-06T14:16:13;0.20;;;0.20;;
15848;SDS011;8024;48.708;9.394;2023-08-06T14:18:41;0.33;;;0.30;;
15848;SDS011;8024;48.708;9.394;2023-08-06T14:21:08;0.47;;;0.20;;
15848;SDS011;8024;48.708;9.394;2023-08-06T14:23:36;0.10;;;0.10;;
15848;SDS011;8024;48.708;9.394;2023-08-06T14:26:06;0.23;;;0.20;;
15848;SDS011;8024;48.708;9.394;2023-08-06T14:28:35;0.20;;;0.20;;
15848;SDS011;8024;48.708;9.394;2023-08-06T14:31:02;1.60;;;0.33;;
15848;SDS011;8024;48.708;9.394;2023-08-06T14:33:29;0.33;;;0.30;;
15848;SDS011;8024;48.708;9.394;2023-08-06T14:35:57;0.20;;;0.20;;
15848;SDS011;8024;48.708;9.394;2023-08-06T14:38:24;0.20;;;0.20;;
15848;SDS011;8024;48.708;9.394;2023-08-06T14:40:52;0.20;;;0.20;;
15848;SDS011;8024;48.708;9.394;2023-08-06T14:43:19;0.20;;;0.20;;
15848;SDS011;8024;48.708;9.394;2023-08-06T14:45:46;0.20;;;0.20;;
15848;SDS011;8024;48.708;9.394;2023-08-06T14:48:14;0.20;;;0.20;;
15848;SDS011;8024;48.708;9.394;2023-08-06T14:50:41;0.20;;;0.20;;
15848;SDS011;8024;48.708;9.394;2023-08-06T14:53:08;0.70;;;0.20;;
15848;SDS011;8024;48.708;9.394;2023-08-06T14:55:36;0.20;;;0.20;;
15848;SDS011;8024;48.708;9.394;2023-08-06T14:58:05;0.83;;;0.30;;
15848;SDS011;8024;48.708;9.394;2023-08-06T15:00:32;1.10;;;0.20;;
15848;SDS011;8024;48.708;9.394;2023-08-06T15:02:59;1.03;;;0.20;;
15848;SDS011;8024;48.708;9.394;2023-08-06T15:05:26;1.30;;;0.30;;